createdAt,value
2022-12-04T00:04:41.461Z,0
2022-12-04T00:11:04.332Z,0
2022-12-04T00:17:24.426Z,0
2022-12-04T00:23:47.328Z,0
2022-12-04T00:30:07.386Z,0
2022-12-04T00:36:30.447Z,0
2022-12-04T00:42:50.399Z,0
2022-12-04T00:49:13.512Z,0
2022-12-04T00:55:33.389Z,0
2022-12-04T01:01:56.318Z,0
2022-12-04T01:08:16.618Z,0
2022-12-04T01:14:39.449Z,0
2022-12-04T01:20:59.390Z,0
2022-12-04T01:27:22.390Z,0
2022-12-04T01:33:42.489Z,0
2022-12-04T01:40:05.339Z,0
2022-12-04T01:46:25.463Z,0
2022-12-04T01:52:48.478Z,0
2022-12-04T01:59:08.382Z,0
2022-12-04T02:05:31.332Z,0
2022-12-04T02:11:51.503Z,0
2022-12-04T02:18:14.314Z,0
2022-12-04T02:24:34.481Z,0
2022-12-04T02:30:57.477Z,0
2022-12-04T02:37:17.382Z,0
2022-12-04T02:43:40.431Z,0
2022-12-04T02:50:00.418Z,0
2022-12-04T02:56:23.307Z,0
2022-12-04T03:02:43.547Z,0
2022-12-04T03:09:06.339Z,0
2022-12-04T03:15:26.384Z,0
2022-12-04T03:21:49.323Z,0
2022-12-04T03:28:09.517Z,0
2022-12-04T03:34:32.313Z,0
2022-12-04T03:40:52.444Z,0
2022-12-04T03:47:15.357Z,0
2022-12-04T03:53:35.547Z,0
2022-12-04T03:59:58.658Z,0
2022-12-04T04:06:18.402Z,0
2022-12-04T04:12:41.332Z,0
2022-12-04T04:28:48.134Z,0
2022-12-04T04:35:10.876Z,0
2022-12-04T04:41:30.354Z,0
2022-12-04T04:47:53.523Z,0
2022-12-04T04:54:13.329Z,0
2022-12-04T05:00:36.357Z,0
2022-12-04T05:06:56.470Z,0
2022-12-04T05:13:19.412Z,0
2022-12-04T05:19:39.423Z,0
2022-12-04T05:26:02.445Z,0
2022-12-04T05:32:22.357Z,0
2022-12-04T05:38:45.354Z,0
2022-12-04T05:45:05.397Z,0
2022-12-04T05:51:28.346Z,0
2022-12-04T05:57:48.397Z,0
2022-12-04T06:04:11.430Z,0
2022-12-04T06:10:31.318Z,0
2022-12-04T06:16:54.456Z,0
2022-12-04T06:23:14.407Z,0
2022-12-04T06:29:37.349Z,0
2022-12-04T06:35:57.359Z,0
2022-12-04T06:42:20.537Z,0
2022-12-04T06:48:40.360Z,0
2022-12-04T06:55:03.345Z,1
2022-12-04T07:01:23.360Z,3
2022-12-04T07:07:46.488Z,7
2022-12-04T07:14:06.320Z,11
2022-12-04T07:20:29.469Z,15
2022-12-04T07:26:49.330Z,24
2022-12-04T07:33:12.342Z,35
2022-12-04T07:39:32.540Z,48
2022-12-04T07:45:55.377Z,55
2022-12-04T07:52:15.337Z,62
2022-12-04T07:58:38.364Z,76
2022-12-04T08:04:58.383Z,81
2022-12-04T08:11:21.466Z,96
2022-12-04T08:17:41.354Z,111
2022-12-04T08:24:04.360Z,126
2022-12-04T08:30:24.443Z,147
2022-12-04T08:36:47.358Z,183
2022-12-04T08:43:07.414Z,210
2022-12-04T08:49:30.418Z,237
2022-12-04T08:55:50.427Z,228
2022-12-04T09:02:13.365Z,205
2022-12-04T09:08:33.448Z,239
2022-12-04T09:14:56.416Z,262
2022-12-04T09:21:16.381Z,289
2022-12-04T09:37:44.263Z,469
2022-12-04T09:44:04.314Z,589
2022-12-04T09:50:27.326Z,550
2022-12-04T09:56:47.397Z,562
2022-12-04T10:03:10.558Z,654
2022-12-04T10:09:30.359Z,744
2022-12-04T10:15:53.369Z,758
2022-12-04T10:22:13.381Z,687
2022-12-04T10:28:36.326Z,642
2022-12-04T10:34:56.399Z,558
2022-12-04T10:41:19.487Z,565
2022-12-04T10:47:39.316Z,587
2022-12-04T10:54:02.361Z,483
2022-12-04T11:00:22.538Z,559
2022-12-04T11:06:45.441Z,645
2022-12-04T11:13:05.408Z,649
2022-12-04T11:19:29.294Z,624
2022-12-04T11:25:49.409Z,578
2022-12-04T11:32:12.481Z,541
2022-12-04T11:38:32.335Z,554
2022-12-04T11:44:55.595Z,585
2022-12-04T11:51:15.453Z,502
2022-12-04T11:57:38.336Z,564
2022-12-04T12:04:04.699Z,568
2022-12-04T12:10:27.351Z,686
2022-12-04T12:16:48.405Z,595
2022-12-04T12:23:10.470Z,592
2022-12-04T12:29:30.525Z,560
2022-12-04T12:35:53.459Z,514
2022-12-04T12:42:13.412Z,463
2022-12-04T12:48:36.366Z,362
2022-12-04T12:54:56.489Z,303
2022-12-04T13:01:19.430Z,311
2022-12-04T13:07:39.571Z,304
2022-12-04T13:14:02.334Z,302
2022-12-04T13:20:22.317Z,278
2022-12-04T13:26:49.399Z,271
2022-12-04T13:33:05.310Z,237
2022-12-04T13:39:28.349Z,216
2022-12-04T13:45:48.554Z,209
2022-12-04T13:52:11.353Z,202
2022-12-04T13:58:31.473Z,174
2022-12-04T14:04:54.742Z,170
2022-12-04T14:11:14.429Z,204
2022-12-04T14:17:37.327Z,239
2022-12-04T14:23:57.362Z,183
2022-12-04T14:48:06.555Z,109
2022-12-04T14:54:29.358Z,89
2022-12-04T15:00:49.423Z,69
2022-12-04T15:07:12.403Z,52
2022-12-04T15:13:32.420Z,31
2022-12-04T15:19:55.430Z,19
2022-12-04T15:26:15.396Z,18
2022-12-04T15:32:38.326Z,10
2022-12-04T15:38:58.309Z,5
2022-12-04T15:45:21.432Z,2
2022-12-04T15:51:41.614Z,1
2022-12-04T15:58:04.410Z,0
2022-12-04T16:04:24.354Z,0
2022-12-04T16:10:47.503Z,0
2022-12-04T16:17:07.319Z,0
2022-12-04T16:23:30.394Z,0
2022-12-04T16:29:50.419Z,0
2022-12-04T16:36:13.340Z,0
2022-12-04T16:42:33.435Z,0
2022-12-04T16:48:56.457Z,0
2022-12-04T16:55:16.375Z,0
2022-12-04T17:01:39.551Z,0
2022-12-04T17:07:59.506Z,0
2022-12-04T17:14:22.452Z,0
2022-12-04T17:20:42.329Z,0
2022-12-04T17:27:05.492Z,0
2022-12-04T17:33:25.300Z,0
2022-12-04T17:39:48.377Z,0
2022-12-04T17:46:08.437Z,0
2022-12-04T17:52:31.407Z,0
2022-12-04T17:58:51.397Z,0
2022-12-04T18:05:14.306Z,0
2022-12-04T18:11:34.756Z,0
2022-12-04T18:17:58.528Z,0
2022-12-04T18:24:18.449Z,0
2022-12-04T18:30:41.457Z,0
2022-12-04T18:37:01.450Z,0
2022-12-04T18:43:24.392Z,0
2022-12-04T18:49:44.328Z,0
2022-12-04T18:56:07.527Z,0
2022-12-04T19:02:27.467Z,0
2022-12-04T19:08:50.434Z,0
2022-12-04T19:15:10.472Z,0
2022-12-04T19:21:33.367Z,0
2022-12-04T19:27:53.318Z,0
2022-12-04T19:50:59.363Z,0
2022-12-04T19:57:22.356Z,0
2022-12-04T20:03:42.508Z,0
2022-12-04T20:10:05.329Z,0
2022-12-04T20:16:25.415Z,0
2022-12-04T20:22:48.396Z,0
2022-12-04T20:29:08.415Z,0
2022-12-04T20:35:31.370Z,0
2022-12-04T20:41:51.375Z,0
2022-12-04T20:48:14.446Z,0
2022-12-04T20:54:40.986Z,0
2022-12-04T21:00:57.356Z,0
2022-12-04T21:07:17.372Z,0
2022-12-04T21:13:40.440Z,0
2022-12-04T21:20:04.256Z,0
2022-12-04T21:26:23.441Z,0
2022-12-04T21:32:43.324Z,0
2022-12-04T21:39:06.349Z,0
2022-12-04T21:45:26.347Z,0
2022-12-04T21:51:57.969Z,0
2022-12-04T21:58:09.338Z,0
2022-12-04T22:04:32.345Z,0
2022-12-04T22:10:52.420Z,0
2022-12-04T22:17:15.485Z,0
2022-12-04T22:23:35.489Z,0
2022-12-04T22:29:58.449Z,0
2022-12-04T22:36:18.396Z,0
2022-12-04T22:42:41.469Z,0
2022-12-04T22:49:01.354Z,0
2022-12-04T22:55:24.367Z,0
2022-12-04T23:20:55.390Z,0
2022-12-04T23:27:15.339Z,0
2022-12-04T23:33:38.420Z,0
2022-12-04T23:39:58.697Z,0
2022-12-04T23:46:21.464Z,0
2022-12-04T23:52:41.305Z,0
2022-12-04T23:59:04.426Z,0
